Time;durP1;ratioP1;P1;durP2;ratioP2;P2;SDS_P1;SDS_P2;PMS_P1;PMS_P2;Temp;Humidity;BMP_temperature;BMP_pressure;BME280_temperature;BME280_humidity;BME280_pressure;Samples;Min_cycle;Max_cycle;Signal;HPM_P1;HPM_P2
2021/08/30 00:00:56;;;;;;;9.53;8.63;;;;;;;;;;5015970;28;20225;-85
2021/08/30 00:03:23;;;;;;;10.43;9.33;;;;;;;;;;5017771;28;20181;-86
2021/08/30 00:05:49;;;;;;;12.10;9.57;;;;;;;;;;5016433;28;20556;-85
2021/08/30 00:08:15;;;;;;;11.50;10.27;;;;;;;;;;5017292;28;20273;-85
2021/08/30 00:10:41;;;;;;;14.17;8.97;;;;;;;;;;5035620;28;20193;-86
2021/08/30 00:13:10;;;;;;;9.83;8.83;;;;;;;;;;5023639;28;20189;-85
2021/08/30 00:15:36;;;;;;;10.57;9.47;;;;;;;;;;5036417;28;20632;-85
2021/08/30 00:18:03;;;;;;;10.80;9.80;;;;;;;;;;5037294;28;20217;-85
2021/08/30 00:20:29;;;;;;;12.50;10.30;;;;;;;;;;5020396;28;20621;-86
2021/08/30 00:22:55;;;;;;;10.60;9.53;;;;;;;;;;5012383;28;20177;-86
2021/08/30 00:25:21;;;;;;;13.00;10.03;;;;;;;;;;5035909;28;20204;-85
2021/08/30 00:27:48;;;;;;;11.93;9.97;;;;;;;;;;5028019;28;20181;-86
2021/08/30 00:30:14;;;;;;;11.50;10.37;;;;;;;;;;5034571;28;20209;-86
2021/08/30 00:32:40;;;;;;;11.73;10.60;;;;;;;;;;5016512;28;20209;-86
2021/08/30 00:35:07;;;;;;;11.70;10.60;;;;;;;;;;5016081;28;20190;-86
2021/08/30 00:37:33;;;;;;;11.23;10.07;;;;;;;;;;5015806;28;20178;-86
2021/08/30 00:39:59;;;;;;;12.30;11.13;;;;;;;;;;5016394;28;20185;-86
2021/08/30 00:42:26;;;;;;;11.90;10.50;;;;;;;;;;5016987;28;20178;-85
2021/08/30 00:44:53;;;;;;;12.37;9.87;;;;;;;;;;5019568;28;20178;-85
2021/08/30 00:47:19;;;;;;;12.60;11.33;;;;;;;;;;5034589;28;20229;-86
2021/08/30 00:49:45;;;;;;;11.77;10.63;;;;;;;;;;5017138;28;20177;-86
2021/08/30 00:52:11;;;;;;;12.43;11.00;;;;;;;;;;5015399;28;20188;-86
2021/08/30 00:54:38;;;;;;;12.10;11.00;;;;;;;;;;5015359;28;20664;-86
2021/08/30 00:57:04;;;;;;;12.60;11.43;;;;;;;;;;5016334;28;20178;-86
2021/08/30 00:59:30;;;;;;;12.27;10.57;;;;;;;;;;5014885;28;20227;-85
2021/08/30 01:01:56;;;;;;;12.03;10.93;;;;;;;;;;5014832;28;20194;-86
2021/08/30 01:04:23;;;;;;;18.60;11.57;;;;;;;;;;5009630;28;20189;-86
2021/08/30 01:06:55;;;;;;;13.13;10.73;;;;;;;;;;5014672;28;20206;-86
2021/08/30 01:09:27;;;;;;;12.43;11.17;;;;;;;;;;5015803;28;20182;-85
2021/08/30 01:12:07;;;;;;;13.23;11.83;;;;;;;;;;5015631;28;20178;-86
2021/08/30 01:14:37;;;;;;;11.20;9.73;;;;;;;;;;5015201;28;20192;-86
2021/08/30 01:17:05;;;;;;;11.73;10.63;;;;;;;;;;5029644;28;20197;-85
2021/08/30 01:19:34;;;;;;;12.00;10.70;;;;;;;;;;5014186;28;20192;-86
2021/08/30 01:22:01;;;;;;;13.33;11.97;;;;;;;;;;5015713;28;20200;-85
2021/08/30 01:24:27;;;;;;;12.77;11.13;;;;;;;;;;5011954;28;20181;-85
2021/08/30 01:26:55;;;;;;;15.70;12.83;;;;;;;;;;5014341;28;20178;-85
2021/08/30 01:29:25;;;;;;;14.50;11.47;;;;;;;;;;5007069;28;20178;-85
2021/08/30 01:31:53;;;;;;;13.33;11.80;;;;;;;;;;5015564;28;20188;-85
2021/08/30 01:34:20;;;;;;;13.33;12.03;;;;;;;;;;5014601;28;20219;-85
2021/08/30 01:36:47;;;;;;;13.47;12.10;;;;;;;;;;5014839;28;20273;-85
2021/08/30 01:39:13;;;;;;;13.63;12.03;;;;;;;;;;5015056;28;20178;-85
2021/08/30 01:41:40;;;;;;;14.40;12.10;;;;;;;;;;5014679;28;20197;-85
2021/08/30 01:44:06;;;;;;;14.17;12.03;;;;;;;;;;5012989;28;20178;-85
2021/08/30 01:46:33;;;;;;;13.30;11.83;;;;;;;;;;5014324;28;20994;-85
2021/08/30 01:49:00;;;;;;;13.60;12.20;;;;;;;;;;5014351;28;20184;-85
2021/08/30 01:51:26;;;;;;;13.37;11.97;;;;;;;;;;5014768;28;20191;-85
2021/08/30 01:53:54;;;;;;;13.27;11.83;;;;;;;;;;5015170;28;20202;-85
2021/08/30 01:56:20;;;;;;;14.53;13.07;;;;;;;;;;5014296;28;20178;-85
2021/08/30 02:01:33;;;;;;;15.77;13.23;;;;;;;;;;5016084;28;20260;-84
2021/08/30 02:03:59;;;;;;;13.20;11.63;;;;;;;;;;5014042;28;20625;-85
2021/08/30 02:06:25;;;;;;;14.80;13.20;;;;;;;;;;5027420;28;20197;-86
2021/08/30 02:08:51;;;;;;;14.67;12.00;;;;;;;;;;5014509;28;20273;-85
2021/08/30 02:11:25;;;;;;;14.73;12.57;;;;;;;;;;5013770;28;20196;-85
2021/08/30 02:13:51;;;;;;;14.23;12.20;;;;;;;;;;5015004;28;20257;-85
2021/08/30 02:16:17;;;;;;;13.93;11.87;;;;;;;;;;5018422;28;20247;-85
2021/08/30 02:18:47;;;;;;;15.30;11.90;;;;;;;;;;5018930;28;20173;-85
2021/08/30 02:21:23;;;;;;;13.97;12.53;;;;;;;;;;5017515;28;20277;-86
2021/08/30 02:24:02;;;;;;;13.50;12.17;;;;;;;;;;5018273;28;20184;-85
2021/08/30 02:26:30;;;;;;;13.87;12.47;;;;;;;;;;5018398;28;20173;-85
2021/08/30 02:28:57;;;;;;;14.90;13.30;;;;;;;;;;5018380;28;20653;-85
2021/08/30 02:31:23;;;;;;;14.90;13.00;;;;;;;;;;4999700;28;20210;-85
2021/08/30 02:33:50;;;;;;;13.80;11.80;;;;;;;;;;5009297;28;20185;-85
2021/08/30 02:36:17;;;;;;;13.77;12.33;;;;;;;;;;5018358;28;20205;-85
2021/08/30 02:38:45;;;;;;;14.97;12.73;;;;;;;;;;5018655;28;20182;-85
2021/08/30 02:41:11;;;;;;;14.67;13.10;;;;;;;;;;5017964;28;20270;-85
2021/08/30 02:43:37;;;;;;;13.17;11.80;;;;;;;;;;5017525;28;20220;-86
2021/08/30 02:46:04;;;;;;;15.40;13.03;;;;;;;;;;5031275;28;20889;-86
2021/08/30 02:48:30;;;;;;;13.40;11.70;;;;;;;;;;5030515;28;20266;-86
2021/08/30 02:50:57;;;;;;;14.70;12.57;;;;;;;;;;5017535;28;20201;-86
2021/08/30 02:53:24;;;;;;;14.33;12.83;;;;;;;;;;5017773;28;20341;-86
2021/08/30 02:55:52;;;;;;;11.60;10.40;;;;;;;;;;5017436;28;20188;-86
2021/08/30 02:58:19;;;;;;;12.27;11.03;;;;;;;;;;5017952;28;20388;-86
2021/08/30 03:00:46;;;;;;;13.00;11.80;;;;;;;;;;5017029;28;20225;-85
2021/08/30 03:03:13;;;;;;;12.83;11.43;;;;;;;;;;5013772;28;20174;-86
2021/08/30 03:05:40;;;;;;;13.73;12.33;;;;;;;;;;5002008;28;20186;-87
2021/08/30 03:08:07;;;;;;;12.03;10.83;;;;;;;;;;5017886;28;20280;-87
2021/08/30 03:10:33;;;;;;;13.83;11.73;;;;;;;;;;5035075;28;20648;-85
2021/08/30 03:13:01;;;;;;;15.57;11.70;;;;;;;;;;5035676;28;20178;-85
2021/08/30 03:15:27;;;;;;;11.37;10.27;;;;;;;;;;5035782;28;20282;-85
2021/08/30 03:17:54;;;;;;;12.17;10.90;;;;;;;;;;5033804;28;20205;-85
2021/08/30 03:20:21;;;;;;;13.20;11.60;;;;;;;;;;5015628;28;20269;-85
2021/08/30 03:22:48;;;;;;;12.53;11.27;;;;;;;;;;5018550;28;20177;-85
2021/08/30 03:25:15;;;;;;;11.67;10.10;;;;;;;;;;5024929;28;20594;-85
2021/08/30 03:27:45;;;;;;;12.43;11.13;;;;;;;;;;5036633;28;20166;-85
2021/08/30 03:30:12;;;;;;;11.63;9.63;;;;;;;;;;5028859;28;20185;-85
2021/08/30 03:32:38;;;;;;;12.37;11.17;;;;;;;;;;5020510;28;20200;-88
2021/08/30 03:35:05;;;;;;;14.00;11.47;;;;;;;;;;5008556;28;20243;-87
2021/08/30 03:37:32;;;;;;;12.27;10.97;;;;;;;;;;5017778;28;20189;-86
2021/08/30 03:39:59;;;;;;;12.30;11.10;;;;;;;;;;5021624;28;20247;-87
2021/08/30 03:42:26;;;;;;;12.77;11.47;;;;;;;;;;5019059;28;20189;-86
2021/08/30 03:44:53;;;;;;;12.77;11.33;;;;;;;;;;5016063;28;20254;-85
2021/08/30 03:47:19;;;;;;;12.93;11.60;;;;;;;;;;5017277;28;20178;-85
2021/08/30 03:49:45;;;;;;;15.43;12.10;;;;;;;;;;5034561;28;20540;-85
2021/08/30 03:52:12;;;;;;;12.27;10.97;;;;;;;;;;5010230;28;20323;-85
2021/08/30 03:54:38;;;;;;;11.97;10.77;;;;;;;;;;4997853;28;20596;-85
2021/08/30 03:57:04;;;;;;;11.93;10.83;;;;;;;;;;4997972;28;20217;-85
2021/08/30 03:59:33;;;;;;;13.40;12.00;;;;;;;;;;5004636;28;20222;-85
2021/08/30 04:02:00;;;;;;;13.57;12.23;;;;;;;;;;5016963;28;20249;-85
2021/08/30 04:04:26;;;;;;;12.80;11.23;;;;;;;;;;5016409;28;20572;-85
2021/08/30 04:06:54;;;;;;;15.20;12.33;;;;;;;;;;5035442;28;20201;-85
2021/08/30 04:09:21;;;;;;;15.53;14.13;;;;;;;;;;5036248;28;20207;-85
2021/08/30 04:11:50;;;;;;;13.07;11.77;;;;;;;;;;5017228;28;20644;-85
2021/08/30 04:14:17;;;;;;;12.33;11.13;;;;;;;;;;5016888;28;20280;-85
2021/08/30 04:16:46;;;;;;;13.50;11.83;;;;;;;;;;5033673;28;20199;-85
2021/08/30 04:19:12;;;;;;;12.70;11.47;;;;;;;;;;5034399;28;20216;-85
2021/08/30 04:21:38;;;;;;;13.00;11.70;;;;;;;;;;5015406;28;20197;-85
2021/08/30 04:24:04;;;;;;;13.70;12.30;;;;;;;;;;5037676;28;20188;-85
2021/08/30 04:26:30;;;;;;;13.83;12.43;;;;;;;;;;5015513;28;20224;-85
2021/08/30 04:28:56;;;;;;;14.00;12.60;;;;;;;;;;5016618;28;20206;-85
2021/08/30 04:31:22;;;;;;;20.30;12.43;;;;;;;;;;5016678;28;20189;-85
2021/08/30 04:33:48;;;;;;;12.93;11.23;;;;;;;;;;5013567;28;20197;-85
2021/08/30 04:36:14;;;;;;;13.67;11.73;;;;;;;;;;5027345;28;20177;-85
2021/08/30 04:38:40;;;;;;;19.10;13.40;;;;;;;;;;5034796;28;20208;-86
2021/08/30 04:41:06;;;;;;;14.57;11.60;;;;;;;;;;5016456;28;20205;-86
2021/08/30 04:43:32;;;;;;;15.00;13.37;;;;;;;;;;5016487;28;20174;-85
2021/08/30 04:45:58;;;;;;;15.07;12.77;;;;;;;;;;5015990;28;20200;-85
2021/08/30 04:48:24;;;;;;;13.83;12.33;;;;;;;;;;5034155;28;20494;-85
2021/08/30 04:50:50;;;;;;;12.90;11.53;;;;;;;;;;5012412;28;20222;-86
2021/08/30 04:53:17;;;;;;;13.80;12.50;;;;;;;;;;5013474;28;20190;-85
2021/08/30 04:55:43;;;;;;;13.13;11.70;;;;;;;;;;5013069;28;20183;-86
2021/08/30 04:58:11;;;;;;;13.97;12.57;;;;;;;;;;5015817;28;20216;-84
2021/08/30 05:00:37;;;;;;;14.30;12.83;;;;;;;;;;5025253;28;20676;-84
2021/08/30 05:03:03;;;;;;;14.40;12.90;;;;;;;;;;5025078;28;20177;-84
2021/08/30 05:05:30;;;;;;;13.90;12.20;;;;;;;;;;5016452;28;20188;-84
2021/08/30 05:08:00;;;;;;;14.93;13.13;;;;;;;;;;5016876;28;20200;-84
2021/08/30 05:10:26;;;;;;;15.30;13.73;;;;;;;;;;5016322;28;20174;-84
2021/08/30 05:12:52;;;;;;;14.73;13.17;;;;;;;;;;5015022;28;20180;-84
2021/08/30 05:15:18;;;;;;;14.20;12.70;;;;;;;;;;5015300;28;20208;-84
2021/08/30 05:17:44;;;;;;;14.77;12.00;;;;;;;;;;5033307;28;20192;-85
2021/08/30 05:20:11;;;;;;;14.37;12.20;;;;;;;;;;5010997;28;20191;-84
2021/08/30 05:22:37;;;;;;;14.63;13.03;;;;;;;;;;5022717;28;20549;-84
2021/08/30 05:25:03;;;;;;;13.90;12.50;;;;;;;;;;5014378;28;20243;-84
2021/08/30 05:27:29;;;;;;;72.40;17.73;;;;;;;;;;5015407;28;20176;-83
2021/08/30 05:29:55;;;;;;;21.57;14.73;;;;;;;;;;5034718;28;20213;-84
2021/08/30 05:32:22;;;;;;;19.57;16.33;;;;;;;;;;5036462;28;20238;-84
2021/08/30 05:34:48;;;;;;;22.97;16.37;;;;;;;;;;5015093;28;20592;-84
2021/08/30 05:37:15;;;;;;;19.63;15.50;;;;;;;;;;5032755;28;20247;-84
2021/08/30 05:39:41;;;;;;;23.03;17.13;;;;;;;;;;5015922;28;20189;-85
2021/08/30 05:42:07;;;;;;;18.57;16.27;;;;;;;;;;5033978;28;20199;-85
2021/08/30 05:44:33;;;;;;;21.97;18.63;;;;;;;;;;5015689;28;20200;-85
2021/08/30 05:47:00;;;;;;;41.37;19.40;;;;;;;;;;5032332;28;20185;-87
2021/08/30 05:49:26;;;;;;;30.90;17.80;;;;;;;;;;5011557;28;20293;-86
2021/08/30 05:51:52;;;;;;;34.50;17.83;;;;;;;;;;5018043;28;20235;-85
2021/08/30 05:54:18;;;;;;;29.03;18.23;;;;;;;;;;5014727;28;20182;-85
2021/08/30 05:56:44;;;;;;;29.97;17.63;;;;;;;;;;5015311;28;20267;-86
2021/08/30 05:59:10;;;;;;;37.90;18.47;;;;;;;;;;5014633;28;20224;-85
2021/08/30 06:01:37;;;;;;;25.37;17.13;;;;;;;;;;5032943;28;20187;-85
2021/08/30 06:04:04;;;;;;;26.13;17.90;;;;;;;;;;5031237;28;20316;-85
2021/08/30 06:06:30;;;;;;;23.87;16.80;;;;;;;;;;5030673;28;20209;-85
2021/08/30 06:08:56;;;;;;;27.90;17.77;;;;;;;;;;5031454;28;20228;-85
2021/08/30 06:11:22;;;;;;;23.23;17.47;;;;;;;;;;5032404;28;20624;-84
2021/08/30 06:13:48;;;;;;;20.17;16.13;;;;;;;;;;5032613;28;20972;-83
2021/08/30 06:16:14;;;;;;;21.43;17.70;;;;;;;;;;5014895;28;20198;-83
2021/08/30 06:18:40;;;;;;;22.37;16.80;;;;;;;;;;5031230;28;20257;-83
2021/08/30 06:21:06;;;;;;;21.23;17.17;;;;;;;;;;5014423;28;20202;-83
2021/08/30 06:23:33;;;;;;;21.63;15.87;;;;;;;;;;5014538;28;20182;-83
2021/08/30 06:26:00;;;;;;;24.67;16.90;;;;;;;;;;5014730;28;20273;-83
2021/08/30 06:28:27;;;;;;;22.60;15.87;;;;;;;;;;5014973;28;20234;-83
2021/08/30 06:30:53;;;;;;;19.77;15.37;;;;;;;;;;5014408;28;20181;-83
2021/08/30 06:33:19;;;;;;;24.77;16.30;;;;;;;;;;5032963;28;20175;-84
2021/08/30 06:35:45;;;;;;;17.10;15.27;;;;;;;;;;5013776;28;20751;-83
2021/08/30 06:38:12;;;;;;;16.23;14.63;;;;;;;;;;5014070;28;20192;-84
2021/08/30 06:40:38;;;;;;;19.33;14.63;;;;;;;;;;5014362;28;20217;-84
2021/08/30 06:43:04;;;;;;;16.87;14.03;;;;;;;;;;5014296;28;20166;-84
2021/08/30 06:45:30;;;;;;;16.33;14.73;;;;;;;;;;5014401;28;20175;-84
2021/08/30 06:47:57;;;;;;;17.13;15.07;;;;;;;;;;5014439;28;20178;-84
2021/08/30 06:50:23;;;;;;;17.60;13.80;;;;;;;;;;5013320;28;20177;-84
2021/08/30 06:52:50;;;;;;;15.00;13.40;;;;;;;;;;5014738;28;20239;-84
2021/08/30 06:55:16;;;;;;;17.07;14.20;;;;;;;;;;5015413;28;20255;-84
2021/08/30 06:57:42;;;;;;;16.60;13.67;;;;;;;;;;5031172;28;20202;-84
2021/08/30 07:00:09;;;;;;;16.23;13.53;;;;;;;;;;5014944;28;20299;-84
2021/08/30 07:02:35;;;;;;;15.60;13.37;;;;;;;;;;5010797;28;20173;-85
2021/08/30 07:05:02;;;;;;;16.00;13.70;;;;;;;;;;5010029;28;20192;-84
2021/08/30 07:07:28;;;;;;;16.23;13.93;;;;;;;;;;5034203;28;20517;-84
2021/08/30 07:09:54;;;;;;;16.42;14.25;;;;;;;;;;5008749;28;20413;-85
2021/08/30 07:12:20;;;;;;;15.30;13.70;;;;;;;;;;5019945;28;20585;-84
2021/08/30 07:14:46;;;;;;;16.20;13.20;;;;;;;;;;5018040;28;20197;-84
2021/08/30 07:17:12;;;;;;;14.87;13.17;;;;;;;;;;5017396;28;20174;-84
2021/08/30 07:19:38;;;;;;;16.07;14.37;;;;;;;;;;5035196;28;20180;-84
2021/08/30 07:22:11;;;;;;;16.63;14.73;;;;;;;;;;5016754;28;20688;-84
2021/08/30 07:24:37;;;;;;;19.13;13.53;;;;;;;;;;5016992;28;21037;-84
2021/08/30 07:27:04;;;;;;;14.83;13.20;;;;;;;;;;5017320;28;20211;-84
2021/08/30 07:29:31;;;;;;;16.03;13.60;;;;;;;;;;5018132;28;20182;-84
2021/08/30 07:31:57;;;;;;;15.47;13.87;;;;;;;;;;5017872;28;20177;-84
2021/08/30 07:34:24;;;;;;;16.10;14.03;;;;;;;;;;5017402;28;20189;-84
2021/08/30 07:36:51;;;;;;;16.77;14.03;;;;;;;;;;5017031;28;20633;-84
2021/08/30 07:39:17;;;;;;;15.47;13.87;;;;;;;;;;5017228;28;20669;-84
2021/08/30 07:41:43;;;;;;;16.63;14.70;;;;;;;;;;5035590;28;20719;-84
2021/08/30 07:44:09;;;;;;;17.20;15.07;;;;;;;;;;5035649;28;20214;-84
2021/08/30 07:46:35;;;;;;;17.60;14.77;;;;;;;;;;5017240;28;20178;-84
2021/08/30 07:49:01;;;;;;;16.13;14.43;;;;;;;;;;5017203;28;20182;-84
2021/08/30 07:51:27;;;;;;;17.73;15.40;;;;;;;;;;5031598;28;20265;-84
2021/08/30 07:53:53;;;;;;;17.57;15.77;;;;;;;;;;5010711;28;20213;-84
2021/08/30 07:56:19;;;;;;;17.23;15.40;;;;;;;;;;5016801;28;20186;-84
2021/08/30 07:58:45;;;;;;;15.73;14.17;;;;;;;;;;5016435;28;20182;-84
2021/08/30 08:01:11;;;;;;;17.40;14.50;;;;;;;;;;5017292;28;20209;-84
2021/08/30 08:03:37;;;;;;;16.27;14.57;;;;;;;;;;5034821;28;20178;-84
2021/08/30 08:06:03;;;;;;;15.97;14.40;;;;;;;;;;5016171;28;20178;-84
2021/08/30 08:08:29;;;;;;;16.30;14.60;;;;;;;;;;5017867;28;20184;-84
2021/08/30 08:10:56;;;;;;;16.47;14.33;;;;;;;;;;5015991;28;20224;-85
2021/08/30 08:13:23;;;;;;;16.03;14.37;;;;;;;;;;5015991;28;20232;-84
2021/08/30 08:15:49;;;;;;;16.23;14.60;;;;;;;;;;5015337;28;20190;-85
2021/08/30 08:18:17;;;;;;;19.77;14.83;;;;;;;;;;5012797;28;20191;-84
2021/08/30 08:20:43;;;;;;;18.17;14.50;;;;;;;;;;5012433;28;20634;-84
2021/08/30 08:23:09;;;;;;;16.07;14.47;;;;;;;;;;5016192;28;20185;-84
2021/08/30 08:25:36;;;;;;;16.23;14.37;;;;;;;;;;5016595;28;20179;-84
2021/08/30 08:28:06;;;;;;;16.37;14.67;;;;;;;;;;5016532;28;20184;-84
2021/08/30 08:30:32;;;;;;;16.73;15.00;;;;;;;;;;5016166;28;20177;-85
2021/08/30 08:32:58;;;;;;;16.23;14.53;;;;;;;;;;5034207;28;20244;-84
2021/08/30 08:35:24;;;;;;;16.17;14.50;;;;;;;;;;5015598;28;20179;-84
2021/08/30 08:37:50;;;;;;;18.07;15.33;;;;;;;;;;5016663;28;20185;-84
2021/08/30 08:40:17;;;;;;;17.57;15.60;;;;;;;;;;5016008;28;20264;-84
2021/08/30 08:42:44;;;;;;;17.70;15.70;;;;;;;;;;5016839;28;20206;-84
2021/08/30 08:45:12;;;;;;;16.30;14.63;;;;;;;;;;5022624;28;20292;-84
2021/08/30 08:47:39;;;;;;;17.23;15.43;;;;;;;;;;5034292;28;20178;-84
2021/08/30 08:50:10;;;;;;;17.87;16.00;;;;;;;;;;5016243;28;20250;-85
2021/08/30 08:52:36;;;;;;;16.63;14.33;;;;;;;;;;5033756;28;20185;-85
2021/08/30 08:55:03;;;;;;;16.47;14.70;;;;;;;;;;5032092;28;20174;-85
2021/08/30 08:57:29;;;;;;;16.37;14.67;;;;;;;;;;5032414;28;20189;-84
2021/08/30 08:59:59;;;;;;;16.37;14.77;;;;;;;;;;5015535;28;20269;-84
2021/08/30 09:02:29;;;;;;;18.23;15.27;;;;;;;;;;5015511;28;20208;-84
2021/08/30 09:04:57;;;;;;;19.17;13.97;;;;;;;;;;5014517;28;20189;-84
2021/08/30 09:07:44;;;;;;;15.60;14.07;;;;;;;;;;5015247;28;20545;-85
2021/08/30 09:10:21;;;;;;;16.17;14.50;;;;;;;;;;5015386;28;20586;-84
2021/08/30 09:12:48;;;;;;;17.00;15.10;;;;;;;;;;5015536;28;20641;-84
2021/08/30 09:15:15;;;;;;;16.23;14.13;;;;;;;;;;5014905;28;20189;-85
2021/08/30 09:17:52;;;;;;;16.10;14.50;;;;;;;;;;5015547;28;20174;-85
2021/08/30 09:20:19;;;;;;;16.80;14.90;;;;;;;;;;5014311;28;20193;-84
2021/08/30 09:22:45;;;;;;;16.50;14.73;;;;;;;;;;4998743;28;20244;-85
2021/08/30 09:25:12;;;;;;;17.13;15.43;;;;;;;;;;5014449;28;20618;-85
2021/08/30 09:27:44;;;;;;;17.93;16.23;;;;;;;;;;5014560;28;20180;-85
2021/08/30 09:30:27;;;;;;;17.00;15.17;;;;;;;;;;5032603;28;20181;-85
2021/08/30 09:32:53;;;;;;;18.43;16.43;;;;;;;;;;5014945;28;20174;-85
2021/08/30 09:35:20;;;;;;;17.33;14.80;;;;;;;;;;5031843;28;20534;-85
2021/08/30 09:37:46;;;;;;;16.10;14.50;;;;;;;;;;5006432;28;20183;-85
2021/08/30 09:40:17;;;;;;;16.73;15.03;;;;;;;;;;4994498;28;20177;-85
2021/08/30 09:42:51;;;;;;;16.63;14.93;;;;;;;;;;4995466;28;20186;-85
2021/08/30 09:45:20;;;;;;;16.20;14.07;;;;;;;;;;5022748;28;20178;-85
2021/08/30 09:47:54;;;;;;;16.13;14.63;;;;;;;;;;5027163;28;20177;-85
2021/08/30 09:50:21;;;;;;;15.70;14.13;;;;;;;;;;5013769;28;20184;-85
2021/08/30 09:52:47;;;;;;;16.00;14.37;;;;;;;;;;5030934;28;20536;-85
2021/08/30 09:55:13;;;;;;;17.13;13.90;;;;;;;;;;5014803;28;20211;-85
2021/08/30 09:57:46;;;;;;;16.83;14.90;;;;;;;;;;5032917;28;20716;-85
2021/08/30 10:00:12;;;;;;;15.57;13.53;;;;;;;;;;5021827;28;20229;-84
2021/08/30 10:02:38;;;;;;;16.70;13.73;;;;;;;;;;5032430;28;20205;-85
2021/08/30 10:05:04;;;;;;;15.40;13.90;;;;;;;;;;5029967;28;20177;-85
2021/08/30 10:07:33;;;;;;;16.07;14.00;;;;;;;;;;5030432;28;20564;-85
2021/08/30 10:09:59;;;;;;;16.10;14.27;;;;;;;;;;5014414;28;20551;-85
2021/08/30 10:12:25;;;;;;;15.97;13.63;;;;;;;;;;5014392;28;20220;-84
2021/08/30 10:14:51;;;;;;;15.47;13.83;;;;;;;;;;5014337;28;20185;-85
2021/08/30 10:17:18;;;;;;;17.53;15.57;;;;;;;;;;5014043;28;20235;-85
2021/08/30 10:19:55;;;;;;;15.30;13.70;;;;;;;;;;5014015;28;20388;-85
2021/08/30 10:22:21;;;;;;;14.60;12.77;;;;;;;;;;5032681;28;20627;-84
2021/08/30 10:24:48;;;;;;;15.30;12.50;;;;;;;;;;5014877;28;20829;-85
2021/08/30 10:27:15;;;;;;;14.97;13.57;;;;;;;;;;5015084;28;20176;-84
2021/08/30 10:29:42;;;;;;;14.37;12.87;;;;;;;;;;5014487;28;20178;-84
2021/08/30 10:32:20;;;;;;;14.20;12.60;;;;;;;;;;5014816;28;20273;-84
2021/08/30 10:34:46;;;;;;;14.80;13.30;;;;;;;;;;5014745;28;20540;-84
2021/08/30 10:37:19;;;;;;;14.17;12.77;;;;;;;;;;5018977;28;20181;-84
2021/08/30 10:39:52;;;;;;;13.23;11.90;;;;;;;;;;5016299;28;20205;-84
2021/08/30 10:42:18;;;;;;;13.20;11.90;;;;;;;;;;5039462;28;20232;-85
2021/08/30 10:44:55;;;;;;;11.47;10.47;;;;;;;;;;5019919;28;20178;-84
2021/08/30 10:47:25;;;;;;;13.20;11.83;;;;;;;;;;5020284;28;20181;-84
2021/08/30 10:49:53;;;;;;;12.83;11.53;;;;;;;;;;5019662;28;20265;-84
2021/08/30 10:52:22;;;;;;;12.70;11.47;;;;;;;;;;5021800;28;20182;-84
2021/08/30 10:54:58;;;;;;;12.43;11.23;;;;;;;;;;5023733;28;20728;-85
2021/08/30 10:57:38;;;;;;;18.23;13.53;;;;;;;;;;5028898;28;20256;-85
2021/08/30 11:00:06;;;;;;;12.30;11.17;;;;;;;;;;5026572;28;20233;-84
2021/08/30 11:02:39;;;;;;;13.50;12.30;;;;;;;;;;5035678;28;20189;-84
2021/08/30 11:05:07;;;;;;;13.17;11.77;;;;;;;;;;5017795;28;20178;-84
2021/08/30 11:07:33;;;;;;;13.03;11.50;;;;;;;;;;5017268;28;20225;-84
2021/08/30 11:10:00;;;;;;;13.40;12.20;;;;;;;;;;5016708;28;20178;-84
2021/08/30 11:12:26;;;;;;;13.03;11.83;;;;;;;;;;5017876;28;20249;-84
2021/08/30 11:14:56;;;;;;;14.07;12.57;;;;;;;;;;5017630;28;20258;-84
2021/08/30 11:17:40;;;;;;;13.53;11.67;;;;;;;;;;5014966;28;20183;-85
2021/08/30 11:20:07;;;;;;;14.10;12.70;;;;;;;;;;5002504;28;20182;-84
2021/08/30 11:22:33;;;;;;;13.43;12.13;;;;;;;;;;5002463;28;20605;-84
2021/08/30 11:25:00;;;;;;;12.63;11.37;;;;;;;;;;5019655;28;21001;-85
2021/08/30 11:27:29;;;;;;;15.23;13.67;;;;;;;;;;5017370;28;20189;-84
2021/08/30 11:29:59;;;;;;;17.67;13.40;;;;;;;;;;5016302;28;20189;-84
2021/08/30 11:32:26;;;;;;;14.80;12.50;;;;;;;;;;5000621;28;20190;-84
2021/08/30 11:34:53;;;;;;;15.23;13.70;;;;;;;;;;4999045;28;20510;-84
2021/08/30 11:37:22;;;;;;;14.17;12.87;;;;;;;;;;4999515;28;20186;-85
2021/08/30 11:39:49;;;;;;;13.53;12.13;;;;;;;;;;4999146;28;20190;-84
2021/08/30 11:42:17;;;;;;;13.33;12.03;;;;;;;;;;4999242;28;20199;-84
2021/08/30 11:44:43;;;;;;;13.50;12.20;;;;;;;;;;4998858;28;20327;-84
2021/08/30 11:47:11;;;;;;;13.90;12.50;;;;;;;;;;4997462;28;20190;-84
2021/08/30 11:49:41;;;;;;;12.70;11.50;;;;;;;;;;4998545;28;20190;-85
2021/08/30 11:52:07;;;;;;;14.30;11.30;;;;;;;;;;5014819;28;20248;-85
2021/08/30 11:54:35;;;;;;;14.27;11.63;;;;;;;;;;4998424;28;20194;-84
2021/08/30 11:57:09;;;;;;;13.67;11.33;;;;;;;;;;4999548;28;20192;-84
2021/08/30 11:59:39;;;;;;;14.60;13.07;;;;;;;;;;5006145;28;20218;-85
2021/08/30 12:02:06;;;;;;;12.90;11.60;;;;;;;;;;5035634;28;20189;-84
2021/08/30 12:04:34;;;;;;;13.17;11.80;;;;;;;;;;5017938;28;20193;-85
2021/08/30 12:07:04;;;;;;;13.47;12.17;;;;;;;;;;5017578;28;20243;-84
2021/08/30 12:09:45;;;;;;;12.13;10.93;;;;;;;;;;5001838;28;20182;-85
2021/08/30 12:12:21;;;;;;;11.97;10.80;;;;;;;;;;5017756;28;20204;-85
2021/08/30 12:14:58;;;;;;;11.83;10.73;;;;;;;;;;5034875;28;20177;-84
2021/08/30 12:17:25;;;;;;;12.97;11.67;;;;;;;;;;5036017;28;20287;-84
2021/08/30 12:19:52;;;;;;;12.33;11.20;;;;;;;;;;5017451;28;20182;-84
2021/08/30 12:22:30;;;;;;;12.53;11.30;;;;;;;;;;5026280;28;20215;-84
2021/08/30 12:25:00;;;;;;;11.77;10.57;;;;;;;;;;5021565;28;20280;-85
2021/08/30 12:27:30;;;;;;;11.80;10.60;;;;;;;;;;5034294;28;20177;-85
2021/08/30 12:30:06;;;;;;;13.13;11.97;;;;;;;;;;5030680;28;20177;-85
2021/08/30 12:32:45;;;;;;;11.40;10.30;;;;;;;;;;5017143;28;20169;-85
2021/08/30 12:35:17;;;;;;;11.77;10.67;;;;;;;;;;5016077;28;20914;-85
2021/08/30 12:37:43;;;;;;;10.93;9.93;;;;;;;;;;5014228;28;20649;-85
2021/08/30 12:40:09;;;;;;;11.83;10.57;;;;;;;;;;5017336;28;20292;-85
2021/08/30 12:42:35;;;;;;;11.30;10.20;;;;;;;;;;5017955;28;20201;-85
2021/08/30 12:45:02;;;;;;;12.27;10.67;;;;;;;;;;5009598;28;20197;-85
2021/08/30 12:47:28;;;;;;;13.57;10.80;;;;;;;;;;4996097;28;20586;-85
2021/08/30 12:49:54;;;;;;;11.70;10.50;;;;;;;;;;4995795;28;20179;-85
2021/08/30 12:52:20;;;;;;;11.37;10.17;;;;;;;;;;4996173;28;20649;-85
2021/08/30 12:54:46;;;;;;;11.63;10.30;;;;;;;;;;5004126;28;20189;-85
2021/08/30 12:57:13;;;;;;;12.23;11.13;;;;;;;;;;5033963;28;20177;-85
2021/08/30 12:59:39;;;;;;;11.97;10.87;;;;;;;;;;5032190;28;20241;-85
2021/08/30 13:02:05;;;;;;;12.27;11.07;;;;;;;;;;5026543;28;20255;-85
2021/08/30 13:04:31;;;;;;;10.50;9.57;;;;;;;;;;5015982;28;20186;-85
2021/08/30 13:06:57;;;;;;;11.00;9.87;;;;;;;;;;5032077;28;20193;-85
2021/08/30 13:09:23;;;;;;;10.67;9.77;;;;;;;;;;5033322;28;20200;-85
2021/08/30 13:11:49;;;;;;;10.43;9.43;;;;;;;;;;5032036;28;20581;-85
2021/08/30 13:14:15;;;;;;;11.07;10.07;;;;;;;;;;5031461;28;20185;-85
2021/08/30 13:16:41;;;;;;;11.33;10.20;;;;;;;;;;5014460;28;20190;-85
2021/08/30 13:19:07;;;;;;;10.80;9.67;;;;;;;;;;5033047;28;20205;-85
2021/08/30 13:21:33;;;;;;;10.60;9.60;;;;;;;;;;5030706;28;20201;-86
2021/08/30 13:23:59;;;;;;;10.20;9.30;;;;;;;;;;5014666;28;20201;-86
2021/08/30 13:26:25;;;;;;;10.60;9.50;;;;;;;;;;5013458;28;20349;-86
2021/08/30 13:28:51;;;;;;;10.97;9.97;;;;;;;;;;5014784;28;20209;-86
2021/08/30 13:31:18;;;;;;;9.77;8.87;;;;;;;;;;5014670;28;20659;-86
2021/08/30 13:33:44;;;;;;;9.17;8.47;;;;;;;;;;5014514;28;20186;-86
2021/08/30 13:36:10;;;;;;;10.20;9.20;;;;;;;;;;5011722;28;20178;-85
2021/08/30 13:38:36;;;;;;;10.47;9.47;;;;;;;;;;5012788;28;20210;-86
2021/08/30 13:41:02;;;;;;;10.63;9.37;;;;;;;;;;5016158;28;20276;-87
2021/08/30 13:43:28;;;;;;;9.97;8.97;;;;;;;;;;4995130;28;20182;-87
2021/08/30 13:45:54;;;;;;;9.40;8.50;;;;;;;;;;4997695;28;20369;-87
2021/08/30 13:48:20;;;;;;;10.40;9.43;;;;;;;;;;4995426;28;20377;-87
2021/08/30 13:50:46;;;;;;;10.00;9.10;;;;;;;;;;5008741;28;20217;-87
2021/08/30 13:53:13;;;;;;;10.93;9.80;;;;;;;;;;5014549;28;20192;-87
2021/08/30 13:55:39;;;;;;;9.90;9.00;;;;;;;;;;5014359;28;20216;-88
2021/08/30 13:58:07;;;;;;;9.00;8.20;;;;;;;;;;5015045;28;20182;-88
2021/08/30 14:00:33;;;;;;;9.37;8.47;;;;;;;;;;5016559;28;20221;-87
2021/08/30 14:02:59;;;;;;;10.40;8.63;;;;;;;;;;5014730;28;20347;-88
2021/08/30 14:05:26;;;;;;;9.93;8.63;;;;;;;;;;5014429;28;20188;-88
2021/08/30 14:07:53;;;;;;;11.23;8.73;;;;;;;;;;5032322;28;20308;-88
2021/08/30 14:10:19;;;;;;;9.13;8.23;;;;;;;;;;5022040;28;20217;-84
2021/08/30 14:12:46;;;;;;;15.33;7.67;;;;;;;;;;5035602;28;20188;-82
2021/08/30 14:15:12;;;;;;;8.90;8.00;;;;;;;;;;5015090;28;20216;-81
2021/08/30 14:17:39;;;;;;;7.50;6.80;;;;;;;;;;5015174;28;20276;-82
2021/08/30 14:20:06;;;;;;;7.13;6.60;;;;;;;;;;5014954;28;20177;-82
2021/08/30 14:22:33;;;;;;;7.13;6.43;;;;;;;;;;5025413;28;20238;-82